sensor_id;sensor_type;location;lat;lon;timestamp;P1;durP1;ratioP1;P2;durP2;ratioP2
7539;SDS011;3811;49.006;12.076;2023-12-07T00:01:46;5.77;;;2.90;;
7539;SDS011;3811;49.006;12.076;2023-12-07T00:04:13;6.57;;;3.83;;
7539;SDS011;3811;49.006;12.076;2023-12-07T00:06:40;4.97;;;3.03;;
7539;SDS011;3811;49.006;12.076;2023-12-07T00:09:07;5.17;;;2.70;;
7539;SDS011;3811;49.006;12.076;2023-12-07T00:11:34;2.50;;;2.30;;
7539;SDS011;3811;49.006;12.076;2023-12-07T00:14:03;2.40;;;1.93;;
7539;SDS011;3811;49.006;12.076;2023-12-07T00:16:30;3.70;;;2.87;;
7539;SDS011;3811;49.006;12.076;2023-12-07T00:18:57;4.63;;;2.87;;
7539;SDS011;3811;49.006;12.076;2023-12-07T00:21:24;4.03;;;2.70;;
7539;SDS011;3811;49.006;12.076;2023-12-07T00:23:52;3.90;;;2.87;;
7539;SDS011;3811;49.006;12.076;2023-12-07T00:26:19;3.70;;;2.07;;
7539;SDS011;3811;49.006;12.076;2023-12-07T00:28:46;4.83;;;3.27;;
7539;SDS011;3811;49.006;12.076;2023-12-07T00:31:14;3.50;;;2.53;;
7539;SDS011;3811;49.006;12.076;2023-12-07T00:33:42;2.57;;;2.20;;
7539;SDS011;3811;49.006;12.076;2023-12-07T00:36:10;4.00;;;2.03;;
7539;SDS011;3811;49.006;12.076;2023-12-07T00:38:37;4.60;;;2.63;;
7539;SDS011;3811;49.006;12.076;2023-12-07T00:41:05;4.07;;;2.43;;
7539;SDS011;3811;49.006;12.076;2023-12-07T00:43:32;5.30;;;2.73;;
7539;SDS011;3811;49.006;12.076;2023-12-07T00:45:59;3.53;;;2.83;;
7539;SDS011;3811;49.006;12.076;2023-12-07T00:48:28;5.10;;;2.53;;
7539;SDS011;3811;49.006;12.076;2023-12-07T00:50:55;6.23;;;3.23;;
7539;SDS011;3811;49.006;12.076;2023-12-07T00:53:23;8.63;;;3.33;;
7539;SDS011;3811;49.006;12.076;2023-12-07T00:55:51;3.30;;;3.00;;
7539;SDS011;3811;49.006;12.076;2023-12-07T00:58:18;3.17;;;2.33;;
7539;SDS011;3811;49.006;12.076;2023-12-07T01:00:45;3.40;;;3.10;;
7539;SDS011;3811;49.006;12.076;2023-12-07T01:03:12;6.00;;;2.93;;
7539;SDS011;3811;49.006;12.076;2023-12-07T01:05:41;5.13;;;3.03;;
7539;SDS011;3811;49.006;12.076;2023-12-07T01:08:08;4.50;;;3.50;;
7539;SDS011;3811;49.006;12.076;2023-12-07T01:10:35;3.10;;;2.13;;
7539;SDS011;3811;49.006;12.076;2023-12-07T01:13:02;6.73;;;2.63;;
7539;SDS011;3811;49.006;12.076;2023-12-07T01:15:30;1.70;;;1.57;;
7539;SDS011;3811;49.006;12.076;2023-12-07T01:17:57;3.53;;;2.67;;
7539;SDS011;3811;49.006;12.076;2023-12-07T01:20:24;3.17;;;2.87;;
7539;SDS011;3811;49.006;12.076;2023-12-07T01:22:54;4.13;;;3.40;;
7539;SDS011;3811;49.006;12.076;2023-12-07T01:25:21;4.33;;;2.87;;
7539;SDS011;3811;49.006;12.076;2023-12-07T01:27:49;4.33;;;2.70;;
7539;SDS011;3811;49.006;12.076;2023-12-07T01:30:16;3.60;;;2.83;;
7539;SDS011;3811;49.006;12.076;2023-12-07T01:32:43;4.43;;;2.53;;
7539;SDS011;3811;49.006;12.076;2023-12-07T01:35:10;4.40;;;2.83;;
7539;SDS011;3811;49.006;12.076;2023-12-07T01:37:38;4.73;;;3.43;;
7539;SDS011;3811;49.006;12.076;2023-12-07T01:40:07;2.00;;;1.87;;
7539;SDS011;3811;49.006;12.076;2023-12-07T01:42:35;3.47;;;2.80;;
7539;SDS011;3811;49.006;12.076;2023-12-07T01:45:03;3.97;;;2.90;;
7539;SDS011;3811;49.006;12.076;2023-12-07T01:47:30;5.10;;;3.20;;
7539;SDS011;3811;49.006;12.076;2023-12-07T01:49:58;3.77;;;3.27;;
7539;SDS011;3811;49.006;12.076;2023-12-07T01:52:25;2.00;;;1.90;;
7539;SDS011;3811;49.006;12.076;2023-12-07T01:54:53;3.40;;;2.50;;
7539;SDS011;3811;49.006;12.076;2023-12-07T01:57:22;5.97;;;3.47;;
7539;SDS011;3811;49.006;12.076;2023-12-07T01:59:50;3.13;;;2.33;;
7539;SDS011;3811;49.006;12.076;2023-12-07T02:02:17;5.20;;;3.63;;
7539;SDS011;3811;49.006;12.076;2023-12-07T02:04:44;4.40;;;3.10;;
7539;SDS011;3811;49.006;12.076;2023-12-07T02:07:11;5.00;;;2.97;;
7539;SDS011;3811;49.006;12.076;2023-12-07T02:09:38;4.20;;;2.90;;
7539;SDS011;3811;49.006;12.076;2023-12-07T02:12:06;4.93;;;3.37;;
7539;SDS011;3811;49.006;12.076;2023-12-07T02:14:34;5.70;;;3.00;;
7539;SDS011;3811;49.006;12.076;2023-12-07T02:17:04;6.20;;;3.03;;
7539;SDS011;3811;49.006;12.076;2023-12-07T02:22:21;3.80;;;2.93;;
7539;SDS011;3811;49.006;12.076;2023-12-07T02:24:54;3.67;;;2.33;;
7539;SDS011;3811;49.006;12.076;2023-12-07T02:27:37;5.17;;;3.37;;
7539;SDS011;3811;49.006;12.076;2023-12-07T02:30:05;5.57;;;3.30;;
7539;SDS011;3811;49.006;12.076;2023-12-07T02:32:32;5.07;;;3.30;;
7539;SDS011;3811;49.006;12.076;2023-12-07T02:35:00;5.57;;;2.73;;
7539;SDS011;3811;49.006;12.076;2023-12-07T02:37:27;4.40;;;3.70;;
7539;SDS011;3811;49.006;12.076;2023-12-07T02:39:58;6.63;;;3.43;;
7539;SDS011;3811;49.006;12.076;2023-12-07T02:42:25;3.30;;;2.87;;
7539;SDS011;3811;49.006;12.076;2023-12-07T02:44:55;7.53;;;2.83;;
7539;SDS011;3811;49.006;12.076;2023-12-07T02:47:22;2.80;;;2.60;;
7539;SDS011;3811;49.006;12.076;2023-12-07T02:49:49;4.77;;;3.37;;
7539;SDS011;3811;49.006;12.076;2023-12-07T02:52:16;4.67;;;3.00;;
7539;SDS011;3811;49.006;12.076;2023-12-07T02:54:44;7.33;;;3.07;;
7539;SDS011;3811;49.006;12.076;2023-12-07T02:57:11;4.20;;;2.97;;
7539;SDS011;3811;49.006;12.076;2023-12-07T02:59:40;3.07;;;2.37;;
7539;SDS011;3811;49.006;12.076;2023-12-07T03:02:08;3.20;;;2.10;;
7539;SDS011;3811;49.006;12.076;2023-12-07T03:04:35;5.33;;;3.43;;
7539;SDS011;3811;49.006;12.076;2023-12-07T03:07:02;4.33;;;2.70;;
7539;SDS011;3811;49.006;12.076;2023-12-07T03:09:29;2.30;;;1.63;;
7539;SDS011;3811;49.006;12.076;2023-12-07T03:11:57;3.03;;;2.10;;
7539;SDS011;3811;49.006;12.076;2023-12-07T03:14:24;3.57;;;3.03;;
7539;SDS011;3811;49.006;12.076;2023-12-07T03:16:51;7.17;;;3.37;;
7539;SDS011;3811;49.006;12.076;2023-12-07T03:19:20;3.80;;;3.33;;
7539;SDS011;3811;49.006;12.076;2023-12-07T03:21:47;6.77;;;3.47;;
7539;SDS011;3811;49.006;12.076;2023-12-07T03:24:14;3.50;;;3.17;;
7539;SDS011;3811;49.006;12.076;2023-12-07T03:26:41;4.17;;;2.90;;
7539;SDS011;3811;49.006;12.076;2023-12-07T03:29:08;3.73;;;2.73;;
7539;SDS011;3811;49.006;12.076;2023-12-07T03:31:34;5.43;;;2.83;;
7539;SDS011;3811;49.006;12.076;2023-12-07T03:34:01;3.10;;;2.80;;
7539;SDS011;3811;49.006;12.076;2023-12-07T03:36:31;3.27;;;2.07;;
7539;SDS011;3811;49.006;12.076;2023-12-07T03:38:59;5.67;;;4.10;;
7539;SDS011;3811;49.006;12.076;2023-12-07T03:41:26;5.87;;;2.97;;
7539;SDS011;3811;49.006;12.076;2023-12-07T03:43:53;5.03;;;2.50;;
7539;SDS011;3811;49.006;12.076;2023-12-07T03:46:20;4.10;;;2.47;;
7539;SDS011;3811;49.006;12.076;2023-12-07T03:48:47;6.83;;;3.77;;
7539;SDS011;3811;49.006;12.076;2023-12-07T03:51:14;4.97;;;2.77;;
7539;SDS011;3811;49.006;12.076;2023-12-07T03:53:43;4.73;;;3.07;;
7539;SDS011;3811;49.006;12.076;2023-12-07T03:56:10;3.97;;;2.00;;
7539;SDS011;3811;49.006;12.076;2023-12-07T03:58:37;5.43;;;3.73;;
7539;SDS011;3811;49.006;12.076;2023-12-07T04:01:05;5.43;;;3.10;;
7539;SDS011;3811;49.006;12.076;2023-12-07T04:03:32;5.53;;;2.77;;
7539;SDS011;3811;49.006;12.076;2023-12-07T04:05:59;6.93;;;3.23;;
7539;SDS011;3811;49.006;12.076;2023-12-07T04:08:27;2.80;;;2.60;;
7539;SDS011;3811;49.006;12.076;2023-12-07T04:10:56;4.83;;;2.13;;
7539;SDS011;3811;49.006;12.076;2023-12-07T04:13:23;2.67;;;2.47;;
7539;SDS011;3811;49.006;12.076;2023-12-07T04:15:50;3.63;;;3.00;;
7539;SDS011;3811;49.006;12.076;2023-12-07T04:18:17;3.40;;;2.50;;
7539;SDS011;3811;49.006;12.076;2023-12-07T04:20:44;4.87;;;3.70;;
7539;SDS011;3811;49.006;12.076;2023-12-07T04:23:11;3.90;;;2.87;;
7539;SDS011;3811;49.006;12.076;2023-12-07T04:25:39;4.33;;;2.67;;
7539;SDS011;3811;49.006;12.076;2023-12-07T04:28:07;5.13;;;4.00;;
7539;SDS011;3811;49.006;12.076;2023-12-07T04:30:34;6.83;;;3.47;;
7539;SDS011;3811;49.006;12.076;2023-12-07T04:33:02;3.43;;;2.40;;
7539;SDS011;3811;49.006;12.076;2023-12-07T04:35:29;3.80;;;2.97;;
7539;SDS011;3811;49.006;12.076;2023-12-07T04:37:56;4.17;;;3.77;;
7539;SDS011;3811;49.006;12.076;2023-12-07T04:40:24;3.17;;;2.40;;
7539;SDS011;3811;49.006;12.076;2023-12-07T04:42:51;4.63;;;3.00;;
7539;SDS011;3811;49.006;12.076;2023-12-07T04:45:20;4.00;;;2.93;;
7539;SDS011;3811;49.006;12.076;2023-12-07T04:47:47;2.63;;;2.40;;
7539;SDS011;3811;49.006;12.076;2023-12-07T04:50:14;3.40;;;2.47;;
7539;SDS011;3811;49.006;12.076;2023-12-07T04:52:41;2.87;;;2.13;;
7539;SDS011;3811;49.006;12.076;2023-12-07T04:55:08;3.27;;;1.93;;
7539;SDS011;3811;49.006;12.076;2023-12-07T04:57:36;4.40;;;2.83;;
7539;SDS011;3811;49.006;12.076;2023-12-07T05:00:03;4.47;;;2.37;;
7539;SDS011;3811;49.006;12.076;2023-12-07T05:02:35;3.23;;;2.67;;
7539;SDS011;3811;49.006;12.076;2023-12-07T05:05:03;3.30;;;2.30;;
7539;SDS011;3811;49.006;12.076;2023-12-07T05:07:30;5.87;;;3.07;;
7539;SDS011;3811;49.006;12.076;2023-12-07T05:09:57;3.30;;;2.10;;
7539;SDS011;3811;49.006;12.076;2023-12-07T05:12:24;3.77;;;2.77;;
7539;SDS011;3811;49.006;12.076;2023-12-07T05:14:52;4.00;;;3.00;;
7539;SDS011;3811;49.006;12.076;2023-12-07T05:17:19;4.47;;;2.90;;
7539;SDS011;3811;49.006;12.076;2023-12-07T05:19:47;4.10;;;2.20;;
7539;SDS011;3811;49.006;12.076;2023-12-07T05:22:15;5.00;;;2.83;;
7539;SDS011;3811;49.006;12.076;2023-12-07T05:24:42;2.97;;;2.10;;
7539;SDS011;3811;49.006;12.076;2023-12-07T05:27:09;4.10;;;2.80;;
7539;SDS011;3811;49.006;12.076;2023-12-07T05:29:36;3.07;;;2.00;;
7539;SDS011;3811;49.006;12.076;2023-12-07T05:32:04;2.80;;;2.50;;
7539;SDS011;3811;49.006;12.076;2023-12-07T05:34:31;2.73;;;2.53;;
7539;SDS011;3811;49.006;12.076;2023-12-07T05:37:00;3.00;;;2.40;;
7539;SDS011;3811;49.006;12.076;2023-12-07T05:39:27;5.67;;;2.80;;
7539;SDS011;3811;49.006;12.076;2023-12-07T05:41:54;7.33;;;3.57;;
7539;SDS011;3811;49.006;12.076;2023-12-07T05:44:21;4.03;;;2.83;;
7539;SDS011;3811;49.006;12.076;2023-12-07T05:46:48;5.23;;;2.90;;
7539;SDS011;3811;49.006;12.076;2023-12-07T05:49:16;5.77;;;3.93;;
7539;SDS011;3811;49.006;12.076;2023-12-07T05:51:43;2.97;;;2.23;;
7539;SDS011;3811;49.006;12.076;2023-12-07T05:54:11;4.33;;;3.10;;
7539;SDS011;3811;49.006;12.076;2023-12-07T05:56:39;4.53;;;2.57;;
7539;SDS011;3811;49.006;12.076;2023-12-07T05:59:06;4.10;;;2.93;;
7539;SDS011;3811;49.006;12.076;2023-12-07T06:01:33;4.37;;;3.13;;
7539;SDS011;3811;49.006;12.076;2023-12-07T06:04:00;6.13;;;3.77;;
7539;SDS011;3811;49.006;12.076;2023-12-07T06:06:27;6.77;;;3.10;;
7539;SDS011;3811;49.006;12.076;2023-12-07T06:08:55;7.60;;;3.60;;
7539;SDS011;3811;49.006;12.076;2023-12-07T06:11:23;4.57;;;3.77;;
7539;SDS011;3811;49.006;12.076;2023-12-07T06:13:50;8.63;;;5.23;;
7539;SDS011;3811;49.006;12.076;2023-12-07T06:16:17;14.27;;;8.43;;
7539;SDS011;3811;49.006;12.076;2023-12-07T06:18:45;8.67;;;4.47;;
7539;SDS011;3811;49.006;12.076;2023-12-07T06:21:13;3.97;;;3.40;;
7539;SDS011;3811;49.006;12.076;2023-12-07T06:23:40;4.20;;;3.23;;
7539;SDS011;3811;49.006;12.076;2023-12-07T06:26:07;7.40;;;4.97;;
7539;SDS011;3811;49.006;12.076;2023-12-07T06:28:36;6.83;;;4.00;;
7539;SDS011;3811;49.006;12.076;2023-12-07T06:31:06;5.10;;;3.40;;
7539;SDS011;3811;49.006;12.076;2023-12-07T06:33:33;7.73;;;4.77;;
7539;SDS011;3811;49.006;12.076;2023-12-07T06:36:01;5.73;;;3.70;;
7539;SDS011;3811;49.006;12.076;2023-12-07T06:38:29;8.80;;;4.63;;
7539;SDS011;3811;49.006;12.076;2023-12-07T06:40:56;6.20;;;3.87;;
7539;SDS011;3811;49.006;12.076;2023-12-07T06:43:23;7.63;;;3.93;;
7539;SDS011;3811;49.006;12.076;2023-12-07T06:45:52;5.20;;;3.67;;
7539;SDS011;3811;49.006;12.076;2023-12-07T06:48:19;6.03;;;3.07;;
7539;SDS011;3811;49.006;12.076;2023-12-07T06:50:47;4.77;;;3.57;;
7539;SDS011;3811;49.006;12.076;2023-12-07T06:53:14;5.97;;;3.70;;
7539;SDS011;3811;49.006;12.076;2023-12-07T06:55:43;6.10;;;3.43;;
7539;SDS011;3811;49.006;12.076;2023-12-07T06:58:10;5.90;;;4.17;;
7539;SDS011;3811;49.006;12.076;2023-12-07T07:00:37;3.77;;;2.90;;
7539;SDS011;3811;49.006;12.076;2023-12-07T07:03:06;6.40;;;3.97;;
7539;SDS011;3811;49.006;12.076;2023-12-07T07:05:33;4.77;;;3.37;;
7539;SDS011;3811;49.006;12.076;2023-12-07T07:08:01;6.70;;;3.13;;
7539;SDS011;3811;49.006;12.076;2023-12-07T07:10:28;4.40;;;3.50;;
7539;SDS011;3811;49.006;12.076;2023-12-07T07:12:59;6.23;;;4.27;;
7539;SDS011;3811;49.006;12.076;2023-12-07T07:15:26;4.50;;;3.13;;
7539;SDS011;3811;49.006;12.076;2023-12-07T07:17:53;5.23;;;3.43;;
7539;SDS011;3811;49.006;12.076;2023-12-07T07:20:22;4.03;;;3.73;;
7539;SDS011;3811;49.006;12.076;2023-12-07T07:22:49;6.63;;;4.27;;
7539;SDS011;3811;49.006;12.076;2023-12-07T07:25:16;5.97;;;3.90;;
7539;SDS011;3811;49.006;12.076;2023-12-07T07:27:45;6.57;;;3.57;;
7539;SDS011;3811;49.006;12.076;2023-12-07T07:30:12;6.27;;;2.80;;
7539;SDS011;3811;49.006;12.076;2023-12-07T07:32:39;9.20;;;3.63;;
7539;SDS011;3811;49.006;12.076;2023-12-07T07:35:07;6.10;;;3.73;;
7539;SDS011;3811;49.006;12.076;2023-12-07T07:37:38;6.17;;;4.17;;
7539;SDS011;3811;49.006;12.076;2023-12-07T07:40:07;4.33;;;3.27;;
7539;SDS011;3811;49.006;12.076;2023-12-07T07:42:36;3.97;;;2.90;;
7539;SDS011;3811;49.006;12.076;2023-12-07T07:45:05;5.93;;;3.83;;
7539;SDS011;3811;49.006;12.076;2023-12-07T07:47:33;3.93;;;2.97;;
7539;SDS011;3811;49.006;12.076;2023-12-07T07:50:00;5.17;;;3.20;;
7539;SDS011;3811;49.006;12.076;2023-12-07T07:52:30;6.27;;;4.07;;
7539;SDS011;3811;49.006;12.076;2023-12-07T07:54:59;4.27;;;3.20;;
7539;SDS011;3811;49.006;12.076;2023-12-07T07:57:26;5.37;;;3.47;;
7539;SDS011;3811;49.006;12.076;2023-12-07T07:59:53;4.93;;;3.43;;
7539;SDS011;3811;49.006;12.076;2023-12-07T08:02:20;7.97;;;4.03;;
7539;SDS011;3811;49.006;12.076;2023-12-07T08:04:48;3.73;;;2.70;;
7539;SDS011;3811;49.006;12.076;2023-12-07T08:07:16;6.10;;;4.57;;
7539;SDS011;3811;49.006;12.076;2023-12-07T08:09:43;6.57;;;3.03;;
7539;SDS011;3811;49.006;12.076;2023-12-07T08:12:12;3.93;;;3.40;;
7539;SDS011;3811;49.006;12.076;2023-12-07T08:14:39;7.53;;;3.40;;
7539;SDS011;3811;49.006;12.076;2023-12-07T08:17:09;7.83;;;4.37;;
7539;SDS011;3811;49.006;12.076;2023-12-07T08:19:36;5.73;;;4.10;;
7539;SDS011;3811;49.006;12.076;2023-12-07T08:22:04;8.37;;;5.03;;
7539;SDS011;3811;49.006;12.076;2023-12-07T08:24:31;4.83;;;4.27;;
7539;SDS011;3811;49.006;12.076;2023-12-07T08:26:58;7.67;;;5.00;;
7539;SDS011;3811;49.006;12.076;2023-12-07T08:29:27;5.10;;;3.23;;
7539;SDS011;3811;49.006;12.076;2023-12-07T08:31:54;4.83;;;3.03;;
7539;SDS011;3811;49.006;12.076;2023-12-07T08:34:21;6.50;;;4.30;;
7539;SDS011;3811;49.006;12.076;2023-12-07T08:36:49;7.60;;;3.20;;
7539;SDS011;3811;49.006;12.076;2023-12-07T08:39:16;7.40;;;4.03;;
7539;SDS011;3811;49.006;12.076;2023-12-07T08:41:43;7.77;;;4.17;;
7539;SDS011;3811;49.006;12.076;2023-12-07T08:44:11;10.33;;;4.80;;
7539;SDS011;3811;49.006;12.076;2023-12-07T08:46:39;7.80;;;3.60;;
7539;SDS011;3811;49.006;12.076;2023-12-07T08:49:08;5.47;;;4.20;;
7539;SDS011;3811;49.006;12.076;2023-12-07T08:51:36;5.53;;;3.57;;
7539;SDS011;3811;49.006;12.076;2023-12-07T08:54:03;9.57;;;4.90;;
7539;SDS011;3811;49.006;12.076;2023-12-07T08:56:30;8.07;;;4.20;;
7539;SDS011;3811;49.006;12.076;2023-12-07T08:58:57;7.87;;;4.20;;
7539;SDS011;3811;49.006;12.076;2023-12-07T09:01:25;7.80;;;4.90;;
7539;SDS011;3811;49.006;12.076;2023-12-07T09:03:54;7.23;;;3.40;;
7539;SDS011;3811;49.006;12.076;2023-12-07T09:06:21;6.30;;;4.20;;
7539;SDS011;3811;49.006;12.076;2023-12-07T09:08:48;8.97;;;5.10;;
7539;SDS011;3811;49.006;12.076;2023-12-07T09:11:15;11.00;;;5.57;;
7539;SDS011;3811;49.006;12.076;2023-12-07T09:13:42;10.20;;;4.73;;
7539;SDS011;3811;49.006;12.076;2023-12-07T09:16:09;6.43;;;3.53;;
7539;SDS011;3811;49.006;12.076;2023-12-07T09:18:36;8.53;;;4.90;;
7539;SDS011;3811;49.006;12.076;2023-12-07T09:21:05;8.97;;;5.13;;
7539;SDS011;3811;49.006;12.076;2023-12-07T09:23:32;14.43;;;6.50;;
7539;SDS011;3811;49.006;12.076;2023-12-07T09:26:02;9.53;;;5.87;;
7539;SDS011;3811;49.006;12.076;2023-12-07T09:28:29;16.83;;;6.33;;
7539;SDS011;3811;49.006;12.076;2023-12-07T09:30:56;7.70;;;4.83;;
7539;SDS011;3811;49.006;12.076;2023-12-07T09:33:24;4.93;;;3.70;;
7539;SDS011;3811;49.006;12.076;2023-12-07T09:35:51;8.87;;;4.90;;
7539;SDS011;3811;49.006;12.076;2023-12-07T09:38:19;5.73;;;4.80;;
7539;SDS011;3811;49.006;12.076;2023-12-07T09:40:46;5.17;;;4.37;;
7539;SDS011;3811;49.006;12.076;2023-12-07T09:43:18;7.00;;;4.70;;
7539;SDS011;3811;49.006;12.076;2023-12-07T09:45:45;12.87;;;6.37;;
7539;SDS011;3811;49.006;12.076;2023-12-07T09:48:13;6.60;;;4.57;;
7539;SDS011;3811;49.006;12.076;2023-12-07T09:50:42;6.03;;;4.63;;
7539;SDS011;3811;49.006;12.076;2023-12-07T09:53:10;6.90;;;4.57;;
7539;SDS011;3811;49.006;12.076;2023-12-07T09:55:38;7.40;;;4.77;;
7539;SDS011;3811;49.006;12.076;2023-12-07T09:58:06;9.27;;;5.87;;
7539;SDS011;3811;49.006;12.076;2023-12-07T10:00:33;5.03;;;4.23;;
7539;SDS011;3811;49.006;12.076;2023-12-07T10:03:01;6.73;;;4.50;;
7539;SDS011;3811;49.006;12.076;2023-12-07T10:05:29;6.67;;;4.23;;
7539;SDS011;3811;49.006;12.076;2023-12-07T10:07:56;5.57;;;4.10;;
7539;SDS011;3811;49.006;12.076;2023-12-07T10:10:23;4.43;;;4.03;;
7539;SDS011;3811;49.006;12.076;2023-12-07T10:12:52;3.60;;;2.80;;
7539;SDS011;3811;49.006;12.076;2023-12-07T10:15:21;6.70;;;4.87;;
7539;SDS011;3811;49.006;12.076;2023-12-07T10:17:51;6.87;;;4.00;;
7539;SDS011;3811;49.006;12.076;2023-12-07T10:20:19;6.37;;;4.10;;
7539;SDS011;3811;49.006;12.076;2023-12-07T10:22:49;5.77;;;3.73;;
7539;SDS011;3811;49.006;12.076;2023-12-07T10:25:16;5.40;;;4.20;;
7539;SDS011;3811;49.006;12.076;2023-12-07T10:27:47;7.03;;;4.80;;
7539;SDS011;3811;49.006;12.076;2023-12-07T10:30:16;3.57;;;3.27;;
7539;SDS011;3811;49.006;12.076;2023-12-07T10:32:50;5.03;;;4.53;;
7539;SDS011;3811;49.006;12.076;2023-12-07T10:35:18;6.67;;;4.53;;
7539;SDS011;3811;49.006;12.076;2023-12-07T10:37:45;10.23;;;4.50;;
7539;SDS011;3811;49.006;12.076;2023-12-07T10:40:13;6.27;;;5.30;;
7539;SDS011;3811;49.006;12.076;2023-12-07T10:42:40;5.53;;;4.17;;
7539;SDS011;3811;49.006;12.076;2023-12-07T10:45:08;4.33;;;3.67;;
7539;SDS011;3811;49.006;12.076;2023-12-07T10:47:39;4.90;;;4.40;;
7539;SDS011;3811;49.006;12.076;2023-12-07T10:50:07;5.43;;;3.97;;
7539;SDS011;3811;49.006;12.076;2023-12-07T10:52:36;5.10;;;4.33;;
7539;SDS011;3811;49.006;12.076;2023-12-07T10:55:05;5.60;;;4.50;;
7539;SDS011;3811;49.006;12.076;2023-12-07T10:57:34;7.40;;;4.87;;
7539;SDS011;3811;49.006;12.076;2023-12-07T11:00:02;5.23;;;4.77;;
7539;SDS011;3811;49.006;12.076;2023-12-07T11:02:30;5.83;;;4.37;;
7539;SDS011;3811;49.006;12.076;2023-12-07T11:05:00;6.87;;;5.33;;
7539;SDS011;3811;49.006;12.076;2023-12-07T11:07:31;5.93;;;4.77;;
7539;SDS011;3811;49.006;12.076;2023-12-07T11:10:06;6.53;;;4.87;;
7539;SDS011;3811;49.006;12.076;2023-12-07T11:12:35;6.97;;;5.03;;
7539;SDS011;3811;49.006;12.076;2023-12-07T11:15:04;8.00;;;5.07;;
7539;SDS011;3811;49.006;12.076;2023-12-07T11:17:47;5.37;;;4.13;;
7539;SDS011;3811;49.006;12.076;2023-12-07T11:20:19;5.03;;;4.53;;
7539;SDS011;3811;49.006;12.076;2023-12-07T11:22:46;6.63;;;5.03;;
7539;SDS011;3811;49.006;12.076;2023-12-07T11:25:14;7.67;;;5.57;;
7539;SDS011;3811;49.006;12.076;2023-12-07T11:27:44;8.13;;;6.10;;
7539;SDS011;3811;49.006;12.076;2023-12-07T11:30:13;9.20;;;5.07;;
7539;SDS011;3811;49.006;12.076;2023-12-07T11:32:41;5.80;;;3.93;;
7539;SDS011;3811;49.006;12.076;2023-12-07T11:35:11;8.00;;;4.97;;
7539;SDS011;3811;49.006;12.076;2023-12-07T11:40:25;5.80;;;5.03;;
7539;SDS011;3811;49.006;12.076;2023-12-07T11:42:52;7.87;;;6.07;;
7539;SDS011;3811;49.006;12.076;2023-12-07T11:48:08;9.37;;;4.93;;
7539;SDS011;3811;49.006;12.076;2023-12-07T11:50:36;8.27;;;5.53;;
7539;SDS011;3811;49.006;12.076;2023-12-07T11:53:05;8.23;;;5.20;;
7539;SDS011;3811;49.006;12.076;2023-12-07T11:55:34;7.70;;;5.13;;
7539;SDS011;3811;49.006;12.076;2023-12-07T11:58:01;7.93;;;5.27;;
7539;SDS011;3811;49.006;12.076;2023-12-07T12:00:28;11.27;;;5.70;;
7539;SDS011;3811;49.006;12.076;2023-12-07T12:02:56;5.87;;;4.67;;
7539;SDS011;3811;49.006;12.076;2023-12-07T12:05:23;9.07;;;5.70;;
7539;SDS011;3811;49.006;12.076;2023-12-07T12:07:51;9.13;;;5.83;;
7539;SDS011;3811;49.006;12.076;2023-12-07T12:10:18;7.93;;;5.77;;
7539;SDS011;3811;49.006;12.076;2023-12-07T12:12:47;5.93;;;4.57;;
7539;SDS011;3811;49.006;12.076;2023-12-07T12:15:14;7.10;;;5.27;;
7539;SDS011;3811;49.006;12.076;2023-12-07T12:17:41;8.43;;;6.00;;
7539;SDS011;3811;49.006;12.076;2023-12-07T12:20:09;11.03;;;6.23;;
7539;SDS011;3811;49.006;12.076;2023-12-07T12:22:42;6.77;;;5.33;;
7539;SDS011;3811;49.006;12.076;2023-12-07T12:25:09;9.90;;;5.37;;
7539;SDS011;3811;49.006;12.076;2023-12-07T12:27:37;9.30;;;6.60;;
7539;SDS011;3811;49.006;12.076;2023-12-07T12:30:07;7.60;;;5.63;;
7539;SDS011;3811;49.006;12.076;2023-12-07T12:32:41;8.60;;;5.43;;
7539;SDS011;3811;49.006;12.076;2023-12-07T12:35:08;8.03;;;6.47;;
7539;SDS011;3811;49.006;12.076;2023-12-07T12:37:37;8.47;;;5.73;;
7539;SDS011;3811;49.006;12.076;2023-12-07T12:40:05;7.53;;;5.27;;
7539;SDS011;3811;49.006;12.076;2023-12-07T12:42:32;9.77;;;6.23;;
7539;SDS011;3811;49.006;12.076;2023-12-07T12:45:02;8.73;;;5.40;;
7539;SDS011;3811;49.006;12.076;2023-12-07T12:47:31;9.00;;;4.87;;
7539;SDS011;3811;49.006;12.076;2023-12-07T12:50:00;8.80;;;5.50;;
7539;SDS011;3811;49.006;12.076;2023-12-07T12:52:29;6.03;;;4.57;;
7539;SDS011;3811;49.006;12.076;2023-12-07T12:54:56;10.50;;;6.37;;
7539;SDS011;3811;49.006;12.076;2023-12-07T12:57:24;6.37;;;5.70;;
7539;SDS011;3811;49.006;12.076;2023-12-07T12:59:51;8.33;;;6.50;;
7539;SDS011;3811;49.006;12.076;2023-12-07T13:02:19;5.93;;;5.07;;
7539;SDS011;3811;49.006;12.076;2023-12-07T13:04:47;9.10;;;4.63;;
7539;SDS011;3811;49.006;12.076;2023-12-07T13:07:15;6.60;;;4.83;;
7539;SDS011;3811;49.006;12.076;2023-12-07T13:09:42;7.73;;;6.57;;
7539;SDS011;3811;49.006;12.076;2023-12-07T13:12:10;7.40;;;5.33;;
7539;SDS011;3811;49.006;12.076;2023-12-07T13:17:05;10.40;;;6.83;;
7539;SDS011;3811;49.006;12.076;2023-12-07T13:19:33;7.97;;;5.63;;
7539;SDS011;3811;49.006;12.076;2023-12-07T13:22:02;8.27;;;6.77;;
7539;SDS011;3811;49.006;12.076;2023-12-07T13:24:29;10.17;;;5.67;;
7539;SDS011;3811;49.006;12.076;2023-12-07T13:26:57;7.77;;;5.90;;
7539;SDS011;3811;49.006;12.076;2023-12-07T13:29:25;8.33;;;5.50;;
7539;SDS011;3811;49.006;12.076;2023-12-07T13:31:52;7.67;;;5.57;;
7539;SDS011;3811;49.006;12.076;2023-12-07T13:34:20;9.87;;;6.43;;
7539;SDS011;3811;49.006;12.076;2023-12-07T13:36:47;7.20;;;5.30;;
7539;SDS011;3811;49.006;12.076;2023-12-07T13:39:16;9.10;;;6.17;;
7539;SDS011;3811;49.006;12.076;2023-12-07T13:41:45;5.63;;;4.70;;
7539;SDS011;3811;49.006;12.076;2023-12-07T13:44:14;8.50;;;5.63;;
7539;SDS011;3811;49.006;12.076;2023-12-07T13:46:43;7.47;;;5.93;;
7539;SDS011;3811;49.006;12.076;2023-12-07T13:49:10;5.87;;;3.97;;
7539;SDS011;3811;49.006;12.076;2023-12-07T13:51:39;6.53;;;4.57;;
7539;SDS011;3811;49.006;12.076;2023-12-07T13:54:07;8.97;;;5.30;;
7539;SDS011;3811;49.006;12.076;2023-12-07T13:56:35;10.20;;;5.43;;
7539;SDS011;3811;49.006;12.076;2023-12-07T13:59:02;5.83;;;5.27;;
7539;SDS011;3811;49.006;12.076;2023-12-07T14:01:32;8.23;;;5.10;;
7539;SDS011;3811;49.006;12.076;2023-12-07T14:04:00;8.83;;;6.03;;
7539;SDS011;3811;49.006;12.076;2023-12-07T14:06:28;8.43;;;5.23;;
7539;SDS011;3811;49.006;12.076;2023-12-07T14:08:55;9.37;;;6.20;;
7539;SDS011;3811;49.006;12.076;2023-12-07T14:11:22;6.40;;;4.23;;
7539;SDS011;3811;49.006;12.076;2023-12-07T14:13:51;7.80;;;4.83;;
7539;SDS011;3811;49.006;12.076;2023-12-07T14:16:19;7.03;;;4.70;;
7539;SDS011;3811;49.006;12.076;2023-12-07T14:18:47;7.97;;;5.40;;
7539;SDS011;3811;49.006;12.076;2023-12-07T14:21:18;8.07;;;5.00;;
7539;SDS011;3811;49.006;12.076;2023-12-07T14:23:46;5.93;;;4.60;;
7539;SDS011;3811;49.006;12.076;2023-12-07T14:26:13;5.40;;;4.17;;
7539;SDS011;3811;49.006;12.076;2023-12-07T14:28:40;6.60;;;3.80;;
7539;SDS011;3811;49.006;12.076;2023-12-07T14:31:08;7.17;;;4.73;;
7539;SDS011;3811;49.006;12.076;2023-12-07T14:33:41;6.87;;;4.60;;
7539;SDS011;3811;49.006;12.076;2023-12-07T14:36:09;8.57;;;4.37;;
7539;SDS011;3811;49.006;12.076;2023-12-07T14:38:37;8.53;;;5.17;;
7539;SDS011;3811;49.006;12.076;2023-12-07T14:41:05;5.10;;;4.43;;
7539;SDS011;3811;49.006;12.076;2023-12-07T14:43:32;7.03;;;4.60;;
7539;SDS011;3811;49.006;12.076;2023-12-07T14:45:59;7.63;;;3.97;;
7539;SDS011;3811;49.006;12.076;2023-12-07T14:48:28;8.60;;;4.70;;
7539;SDS011;3811;49.006;12.076;2023-12-07T14:50:56;9.47;;;5.03;;
7539;SDS011;3811;49.006;12.076;2023-12-07T14:53:23;7.53;;;5.60;;
7539;SDS011;3811;49.006;12.076;2023-12-07T14:55:51;8.77;;;5.53;;
7539;SDS011;3811;49.006;12.076;2023-12-07T14:58:19;8.53;;;5.13;;
7539;SDS011;3811;49.006;12.076;2023-12-07T15:00:46;9.40;;;5.10;;
7539;SDS011;3811;49.006;12.076;2023-12-07T15:03:13;8.17;;;4.17;;
7539;SDS011;3811;49.006;12.076;2023-12-07T15:05:42;6.47;;;4.37;;
7539;SDS011;3811;49.006;12.076;2023-12-07T15:08:09;7.77;;;4.73;;
7539;SDS011;3811;49.006;12.076;2023-12-07T15:10:37;8.30;;;5.10;;
7539;SDS011;3811;49.006;12.076;2023-12-07T15:13:04;9.20;;;5.17;;
7539;SDS011;3811;49.006;12.076;2023-12-07T15:15:31;6.93;;;3.90;;